createdAt,value
2022-11-19T00:01:27.228Z,100956.75
2022-11-19T00:03:55.549Z,100959.63
2022-11-19T00:06:26.204Z,100961.38
2022-11-19T00:08:54.840Z,100966.22
2022-11-19T00:11:44.159Z,100961.19
2022-11-19T00:14:14.762Z,100963.91
2022-11-19T00:16:43.932Z,100965.88
2022-11-19T00:19:12.732Z,100976.38
2022-11-19T00:21:40.374Z,100978.28
2022-11-19T00:24:08.885Z,100967.63
2022-11-19T00:26:36.693Z,100969.19
2022-11-19T00:29:04.122Z,100968.03
2022-11-19T00:31:31.987Z,100970.50
2022-11-19T00:33:59.163Z,100965.31
2022-11-19T00:36:26.371Z,100978.13
2022-11-19T00:38:53.531Z,100974.34
2022-11-19T00:41:20.713Z,100969.88
2022-11-19T00:43:49.347Z,100975.06
2022-11-19T00:46:23.845Z,100977.50
2022-11-19T00:48:54.048Z,100976.81
2022-11-19T00:51:23.567Z,100978.47
2022-11-19T00:53:51.706Z,100977.63
2022-11-19T00:56:23.667Z,100979.94
2022-11-19T00:58:51.881Z,100989.09
2022-11-19T01:01:23.731Z,100989.66
2022-11-19T01:03:52.220Z,100986.03
2022-11-19T01:06:22.705Z,100989.94
2022-11-19T01:08:52.001Z,100992.94
2022-11-19T01:11:24.277Z,100993.50
2022-11-19T01:13:52.360Z,100993.63
2022-11-19T01:16:24.512Z,100997.19
2022-11-19T01:18:52.458Z,101003.81
2022-11-19T01:21:24.190Z,101000.28
2022-11-19T01:23:52.672Z,100995.03
2022-11-19T01:26:20.213Z,101002.78
2022-11-19T01:28:48.082Z,100997.63
2022-11-19T01:31:35.500Z,100998.38
2022-11-19T01:34:02.664Z,101001.94
2022-11-19T01:36:30.644Z,101002.34
2022-11-19T01:38:58.675Z,100997.53
2022-11-19T01:41:33.158Z,100998.16
2022-11-19T01:44:07.268Z,101006.97
2022-11-19T01:46:38.421Z,100997.38
2022-11-19T01:49:20.160Z,100994.16
2022-11-19T01:51:56.491Z,101000.28
2022-11-19T01:54:28.267Z,101005.75
2022-11-19T01:57:02.838Z,101007.66
2022-11-19T01:59:32.025Z,101012.00
2022-11-19T02:01:59.979Z,101016.63
2022-11-19T02:04:28.680Z,101019.56
2022-11-19T02:06:57.112Z,101017.50
2022-11-19T02:09:28.395Z,101023.34
2022-11-19T02:12:17.082Z,101025.47
2022-11-19T02:15:07.029Z,101008.50
2022-11-19T02:18:13.098Z,101021.19
2022-11-19T02:21:39.035Z,101024.78
2022-11-19T02:24:46.750Z,101026.03
2022-11-19T02:27:47.619Z,101022.69
2022-11-19T02:30:18.272Z,101028.88
2022-11-19T02:33:31.910Z,101025.63
2022-11-19T02:36:09.365Z,101034.91
2022-11-19T02:38:50.529Z,101033.19
2022-11-19T02:41:34.080Z,101034.91
2022-11-19T02:44:33.556Z,101034.06
2022-11-19T02:47:08.245Z,101039.91
2022-11-19T02:49:44.064Z,101040.75
2022-11-19T02:52:16.686Z,101039.56
2022-11-19T02:54:44.135Z,101037.47
2022-11-19T02:57:13.303Z,101046.59
2022-11-19T03:00:12.033Z,101053.84
2022-11-19T03:03:08.629Z,101052.50
2022-11-19T03:05:42.424Z,101053.47
2022-11-19T03:08:09.781Z,101045.66
2022-11-19T03:11:07.339Z,101048.75
2022-11-19T03:14:09.553Z,101056.63
2022-11-19T03:16:50.044Z,101056.81
2022-11-19T03:19:56.388Z,101050.38
2022-11-19T03:22:45.336Z,101058.16
2022-11-19T03:25:22.520Z,101058.09
2022-11-19T03:27:56.329Z,101048.00
2022-11-19T03:30:23.862Z,101058.84
2022-11-19T03:33:25.646Z,101054.53
2022-11-19T03:36:01.608Z,101067.28
2022-11-19T03:38:37.115Z,101066.84
2022-11-19T03:41:07.704Z,101062.34
2022-11-19T03:43:39.701Z,101070.63
2022-11-19T03:46:16.681Z,101066.03
2022-11-19T03:48:52.747Z,101066.75
2022-11-19T03:51:29.773Z,101070.13
2022-11-19T03:53:56.951Z,101069.41
2022-11-19T03:56:28.059Z,101072.63
2022-11-19T03:58:55.203Z,101074.34
2022-11-19T04:01:22.745Z,101070.34
2022-11-19T04:04:08.738Z,101077.84
2022-11-19T04:06:35.889Z,101084.50
2022-11-19T04:09:03.097Z,101082.97
2022-11-19T04:11:31.396Z,101081.88
2022-11-19T04:13:58.587Z,101074.69
2022-11-19T04:16:25.911Z,101068.88
2022-11-19T04:18:53.095Z,101078.16
2022-11-19T04:21:20.271Z,101071.47
2022-11-19T04:23:47.525Z,101080.94
2022-11-19T04:26:14.820Z,101071.09
2022-11-19T04:28:41.973Z,101074.97
2022-11-19T04:31:12.281Z,101075.94
2022-11-19T04:33:42.087Z,101074.56
2022-11-19T04:36:09.336Z,101079.44
2022-11-19T04:38:36.554Z,101073.25
2022-11-19T04:41:03.926Z,101079.69
2022-11-19T04:43:31.174Z,101078.25
2022-11-19T04:45:58.338Z,101075.00
2022-11-19T04:48:25.558Z,101071.63
2022-11-19T04:50:52.714Z,101068.50
2022-11-19T04:53:20.268Z,101062.31
2022-11-19T04:55:47.485Z,101061.84
2022-11-19T04:58:15.417Z,101066.44
2022-11-19T05:00:42.858Z,101060.34
2022-11-19T05:03:10.121Z,101061.84
2022-11-19T05:05:37.364Z,101059.06
2022-11-19T05:08:05.069Z,101062.44
2022-11-19T05:10:32.485Z,101070.72
2022-11-19T05:12:59.649Z,101076.41
2022-11-19T05:15:26.971Z,101082.25
2022-11-19T05:17:54.133Z,101096.03
2022-11-19T05:20:21.390Z,101085.88
2022-11-19T05:22:48.535Z,101090.75
2022-11-19T05:25:15.751Z,101087.25
2022-11-19T05:27:42.957Z,101085.09
2022-11-19T05:30:11.632Z,101090.22
2022-11-19T05:32:39.185Z,101088.94
2022-11-19T05:35:07.589Z,101081.63
2022-11-19T05:37:34.810Z,101084.03
2022-11-19T05:40:02.397Z,101085.41
2022-11-19T05:42:29.599Z,101089.00
2022-11-19T05:44:56.797Z,101090.31
2022-11-19T05:47:24.006Z,101095.44
2022-11-19T05:49:51.157Z,101086.19
2022-11-19T05:52:18.359Z,101085.31
2022-11-19T05:54:45.515Z,101088.00
2022-11-19T05:57:13.053Z,101095.94
2022-11-19T05:59:43.765Z,101099.22
2022-11-19T06:02:11.982Z,101099.25
2022-11-19T06:04:39.791Z,101095.44
2022-11-19T06:07:07.104Z,101098.38
2022-11-19T06:09:34.338Z,101097.06
2022-11-19T06:12:01.786Z,101091.94
2022-11-19T06:14:28.982Z,101098.28
2022-11-19T06:16:59.399Z,101090.75
2022-11-19T06:19:26.825Z,101090.75
2022-11-19T06:21:54.427Z,101095.81
2022-11-19T06:24:21.960Z,101096.41
2022-11-19T06:26:49.301Z,101094.50
2022-11-19T06:29:18.682Z,101097.53
2022-11-19T06:31:46.876Z,101104.38
2022-11-19T06:34:14.339Z,101099.63
2022-11-19T06:36:47.648Z,101100.47
2022-11-19T06:39:17.750Z,101109.97
2022-11-19T06:41:45.110Z,101105.72
2022-11-19T06:44:12.241Z,101113.19
2022-11-19T06:46:39.442Z,101117.88
2022-11-19T06:49:07.097Z,101122.59
2022-11-19T06:51:34.267Z,101129.75
2022-11-19T06:54:01.423Z,101124.84
2022-11-19T06:56:28.586Z,101130.06
2022-11-19T06:58:58.655Z,101132.09
2022-11-19T07:01:26.667Z,101133.84
2022-11-19T07:03:53.928Z,101132.78
2022-11-19T07:06:21.065Z,101131.25
2022-11-19T07:08:48.551Z,101130.25
2022-11-19T07:11:30.668Z,101129.97
2022-11-19T07:14:00.764Z,101128.19
2022-11-19T07:16:34.609Z,101129.44
2022-11-19T07:19:05.713Z,101134.53
2022-11-19T07:21:33.625Z,101138.72
2022-11-19T07:24:03.478Z,101132.59
2022-11-19T07:26:32.739Z,101132.69
2022-11-19T07:29:04.864Z,101135.63
2022-11-19T07:31:33.756Z,101139.69
2022-11-19T07:34:01.323Z,101135.81
2022-11-19T07:36:28.561Z,101144.84
2022-11-19T07:38:59.039Z,101155.13
2022-11-19T07:41:45.092Z,101152.56
2022-11-19T07:44:12.290Z,101163.78
2022-11-19T07:46:41.146Z,101165.28
2022-11-19T07:49:08.566Z,101152.09
2022-11-19T07:51:35.804Z,101167.91
2022-11-19T07:54:03.590Z,101165.56
2022-11-19T07:56:30.844Z,101171.34
2022-11-19T07:59:00.517Z,101159.03
2022-11-19T08:01:28.093Z,101156.91
2022-11-19T08:03:56.843Z,101161.69
2022-11-19T08:06:28.401Z,101140.16
2022-11-19T08:08:56.456Z,101138.28
2022-11-19T08:11:24.188Z,101143.47
2022-11-19T08:13:52.670Z,101137.28
2022-11-19T08:16:39.304Z,101133.50
2022-11-19T08:19:12.677Z,101129.22
2022-11-19T08:21:44.345Z,101131.34
2022-11-19T08:24:14.019Z,101136.03
2022-11-19T08:26:42.051Z,101120.97
2022-11-19T08:29:15.825Z,101119.63
2022-11-19T08:31:46.329Z,101122.94
2022-11-19T08:34:14.921Z,101114.88
2022-11-19T08:36:42.114Z,101106.91
2022-11-19T08:39:09.937Z,101104.88
2022-11-19T08:41:56.166Z,101086.56
2022-11-19T08:44:23.716Z,101056.34
2022-11-19T08:46:50.975Z,101056.16
2022-11-19T08:49:18.601Z,101038.13
2022-11-19T08:51:45.856Z,101042.59
2022-11-19T08:54:13.266Z,101039.81
2022-11-19T08:56:40.478Z,101035.31
2022-11-19T08:59:07.790Z,101038.69
2022-11-19T09:01:35.086Z,101034.78
2022-11-19T09:04:02.501Z,101042.78
2022-11-19T09:06:29.721Z,101042.78
2022-11-19T09:08:58.277Z,101046.44
2022-11-19T09:11:25.750Z,101037.03
2022-11-19T09:13:53.135Z,101026.81
2022-11-19T09:16:20.469Z,101026.19
2022-11-19T09:18:47.697Z,101037.63
2022-11-19T09:21:15.176Z,101014.56
2022-11-19T09:23:42.775Z,101027.84
2022-11-19T09:26:16.076Z,101020.88
2022-11-19T09:28:44.014Z,101024.66
2022-11-19T09:31:17.907Z,101020.78
2022-11-19T09:33:49.682Z,101036.81
2022-11-19T09:36:19.437Z,101021.44
2022-11-19T09:38:48.375Z,101034.56
2022-11-19T09:42:01.412Z,101032.66
2022-11-19T09:44:37.978Z,101049.28
2022-11-19T09:47:35.905Z,101053.03
2022-11-19T09:50:24.742Z,101063.66
2022-11-19T09:52:56.574Z,101047.56
2022-11-19T09:55:32.158Z,101038.97
2022-11-19T09:58:03.343Z,101042.88
2022-11-19T10:00:31.943Z,101041.56
2022-11-19T10:03:11.148Z,101035.69
2022-11-19T10:05:56.779Z,101042.38
2022-11-19T10:08:43.933Z,101043.88
2022-11-19T10:11:36.205Z,101045.34
2022-11-19T10:14:37.351Z,101029.81
2022-11-19T10:17:52.620Z,101007.66
2022-11-19T10:21:33.507Z,101026.25
2022-11-19T10:24:34.978Z,101036.44
2022-11-19T10:27:27.299Z,101029.59
2022-11-19T10:29:59.830Z,101043.06
2022-11-19T10:32:40.173Z,101041.22
2022-11-19T10:35:30.114Z,101035.22
2022-11-19T10:38:16.449Z,101026.16
2022-11-19T10:40:55.315Z,101037.13
2022-11-19T10:43:35.392Z,101036.44
2022-11-19T10:46:09.047Z,101025.84
2022-11-19T10:48:58.991Z,101027.47
2022-11-19T10:51:38.892Z,101011.56
2022-11-19T10:54:28.658Z,101017.94
2022-11-19T10:56:58.658Z,101018.09
2022-11-19T10:59:30.374Z,101021.00
2022-11-19T11:02:08.481Z,101021.56
2022-11-19T11:05:04.215Z,101016.63
2022-11-19T11:07:51.582Z,101013.34
2022-11-19T11:10:38.620Z,101015.09
2022-11-19T11:13:44.124Z,101009.59
2022-11-19T11:16:19.597Z,101012.06
2022-11-19T11:18:48.696Z,101020.09
2022-11-19T11:21:29.681Z,101020.38
2022-11-19T11:23:57.694Z,101006.28
2022-11-19T11:26:30.812Z,100999.72
2022-11-19T11:29:22.688Z,100990.97
2022-11-19T11:31:50.088Z,100989.81
2022-11-19T11:34:26.040Z,100987.34
2022-11-19T11:36:55.201Z,100984.31
2022-11-19T11:39:32.423Z,100981.13
2022-11-19T11:42:06.034Z,100979.84
2022-11-19T11:44:38.205Z,100971.44
2022-11-19T11:47:28.190Z,100971.91
2022-11-19T11:50:28.274Z,100960.94
2022-11-19T11:52:57.699Z,100949.16
2022-11-19T11:55:24.759Z,100960.00
2022-11-19T11:58:00.189Z,100967.78
2022-11-19T12:00:37.853Z,100961.19
2022-11-19T12:03:08.124Z,100951.81
2022-11-19T12:06:05.803Z,100942.09
2022-11-19T12:09:02.302Z,100934.47
2022-11-19T12:11:57.984Z,100949.38
2022-11-19T12:14:36.608Z,100931.13
2022-11-19T12:17:21.885Z,100923.25
2022-11-19T12:20:25.599Z,100928.50
2022-11-19T12:23:37.740Z,100930.53
2022-11-19T12:26:28.873Z,100918.88
2022-11-19T12:29:33.071Z,100920.19
2022-11-19T12:32:27.902Z,100913.78
2022-11-19T12:35:14.631Z,100917.00
2022-11-19T12:38:04.798Z,100918.75
2022-11-19T12:41:02.193Z,100921.47
2022-11-19T12:43:51.448Z,100911.56
2022-11-19T12:46:33.529Z,100918.59
2022-11-19T12:50:03.233Z,100927.47
2022-11-19T12:52:56.366Z,100921.59
2022-11-19T12:55:56.277Z,100915.09
2022-11-19T12:59:07.124Z,100909.53
2022-11-19T13:01:40.611Z,100911.09
2022-11-19T13:04:45.744Z,100917.97
2022-11-19T13:07:23.110Z,100920.25
2022-11-19T13:10:13.210Z,100926.56
2022-11-19T13:12:47.493Z,100923.09
2022-11-19T13:15:28.126Z,100922.28
2022-11-19T13:18:00.072Z,100919.94
2022-11-19T13:20:55.427Z,100919.00
2022-11-19T13:23:40.058Z,100919.84
2022-11-19T13:26:31.514Z,100918.22
2022-11-19T13:29:20.189Z,100918.94
2022-11-19T13:31:59.878Z,100908.66
2022-11-19T13:34:40.035Z,100911.91
2022-11-19T13:37:58.546Z,100921.19
2022-11-19T13:40:45.289Z,100924.75
2022-11-19T13:43:37.806Z,100921.53
2022-11-19T13:46:20.470Z,100929.59
2022-11-19T13:49:06.988Z,100935.09
2022-11-19T13:51:49.582Z,100921.63
2022-11-19T13:54:33.735Z,100925.19
2022-11-19T13:57:01.837Z,100919.16
2022-11-19T13:59:44.313Z,100923.66
2022-11-19T14:02:51.492Z,100922.38
2022-11-19T14:05:40.419Z,100921.72
2022-11-19T14:08:58.200Z,100924.53
2022-11-19T14:11:47.150Z,100917.41
2022-11-19T14:14:49.298Z,100915.91
2022-11-19T14:17:44.786Z,100913.44
2022-11-19T14:20:55.268Z,100919.13
2022-11-19T14:24:05.372Z,100910.13
2022-11-19T14:26:41.527Z,100910.31
2022-11-19T14:29:26.782Z,100907.69
2022-11-19T14:32:03.100Z,100902.81
2022-11-19T14:34:34.267Z,100908.44
2022-11-19T14:37:15.808Z,100907.19
2022-11-19T14:39:51.874Z,100906.19
2022-11-19T14:42:22.763Z,100902.75
2022-11-19T14:45:02.779Z,100901.72
2022-11-19T14:47:38.730Z,100901.81
2022-11-19T14:50:26.079Z,100899.84
2022-11-19T14:52:59.838Z,100895.94
2022-11-19T14:55:30.545Z,100899.91
2022-11-19T14:58:19.679Z,100896.41
2022-11-19T15:00:47.851Z,100895.53
2022-11-19T15:03:27.869Z,100902.00
2022-11-19T15:05:55.955Z,100901.63
2022-11-19T15:08:22.997Z,100902.50
2022-11-19T15:11:09.779Z,100896.19
2022-11-19T15:13:40.414Z,100890.91
2022-11-19T15:16:22.887Z,100898.09
2022-11-19T15:19:25.189Z,100901.81
2022-11-19T15:22:31.916Z,100894.28
2022-11-19T15:25:26.527Z,100899.69
2022-11-19T15:28:13.827Z,100886.28
2022-11-19T15:30:58.277Z,100889.19
2022-11-19T15:33:48.460Z,100887.00
2022-11-19T15:36:45.449Z,100883.28
2022-11-19T15:39:34.387Z,100883.28
2022-11-19T15:42:11.130Z,100878.13
2022-11-19T15:45:12.711Z,100873.16
2022-11-19T15:47:52.405Z,100875.00
2022-11-19T15:50:23.830Z,100868.94
2022-11-19T15:53:14.027Z,100878.06
2022-11-19T15:55:56.002Z,100881.97
2022-11-19T15:58:46.825Z,100876.69
2022-11-19T16:01:18.211Z,100871.47
2022-11-19T16:03:45.792Z,100873.59
2022-11-19T16:06:30.511Z,100869.16
2022-11-19T16:09:04.726Z,100871.72
2022-11-19T16:11:56.730Z,100869.28
2022-11-19T16:14:48.272Z,100869.34
2022-11-19T16:17:43.163Z,100869.59
2022-11-19T16:20:10.881Z,100867.63
2022-11-19T16:22:54.695Z,100874.66
2022-11-19T16:25:35.349Z,100868.59
2022-11-19T16:28:07.422Z,100867.72
2022-11-19T16:30:50.362Z,100864.34
2022-11-19T16:33:24.849Z,100867.81
2022-11-19T16:36:17.087Z,100868.31
2022-11-19T16:38:50.913Z,100864.31
2022-11-19T16:41:42.170Z,100862.47
2022-11-19T16:44:18.811Z,100860.47
2022-11-19T16:46:46.877Z,100866.13
2022-11-19T16:49:42.621Z,100858.88
2022-11-19T16:52:09.857Z,100870.69
2022-11-19T16:54:49.619Z,100870.69
2022-11-19T16:57:26.376Z,100862.75
2022-11-19T17:00:12.467Z,100853.59
2022-11-19T17:02:41.184Z,100858.31
2022-11-19T17:05:13.517Z,100858.03
2022-11-19T17:08:06.985Z,100861.25
2022-11-19T17:10:35.397Z,100861.22
2022-11-19T17:13:28.136Z,100865.72
2022-11-19T17:15:55.520Z,100860.91
2022-11-19T17:18:34.918Z,100866.56
2022-11-19T17:21:06.692Z,100864.88
2022-11-19T17:23:48.660Z,100866.06
2022-11-19T17:26:25.640Z,100868.53
2022-11-19T17:29:08.753Z,100867.53
2022-11-19T17:31:36.140Z,100868.13
2022-11-19T17:34:22.028Z,100856.41
2022-11-19T17:36:49.502Z,100855.69
2022-11-19T17:39:22.639Z,100857.44
2022-11-19T17:42:15.411Z,100861.22
2022-11-19T17:44:42.797Z,100863.00
2022-11-19T17:47:23.763Z,100865.88
2022-11-19T17:49:52.664Z,100870.19
2022-11-19T17:52:30.981Z,100874.28
2022-11-19T17:55:14.356Z,100870.50
2022-11-19T17:57:42.897Z,100862.28
2022-11-19T18:00:11.608Z,100860.66
2022-11-19T18:02:38.831Z,100857.84
2022-11-19T18:05:18.669Z,100863.47
2022-11-19T18:07:46.589Z,100864.00
2022-11-19T18:10:13.845Z,100859.53
2022-11-19T18:12:41.035Z,100867.19
2022-11-19T18:15:18.325Z,100866.91
2022-11-19T18:17:46.144Z,100869.84
2022-11-19T18:20:13.821Z,100866.78
2022-11-19T18:22:41.137Z,100872.84
2022-11-19T18:25:18.094Z,100873.84
2022-11-19T18:27:45.955Z,100869.78
2022-11-19T18:30:14.779Z,100867.00
2022-11-19T18:32:42.721Z,100859.94
2022-11-19T18:35:17.784Z,100859.53
2022-11-19T18:37:45.849Z,100862.34
2022-11-19T18:40:15.084Z,100861.63
2022-11-19T18:43:03.001Z,100857.88
2022-11-19T18:45:30.933Z,100863.59
2022-11-19T18:47:58.115Z,100863.59
2022-11-19T18:50:29.576Z,100855.38
2022-11-19T18:52:57.457Z,100846.78
2022-11-19T18:55:24.647Z,100851.19
2022-11-19T18:57:51.876Z,100859.94
2022-11-19T19:00:19.637Z,100845.06
2022-11-19T19:02:47.430Z,100854.59
2022-11-19T19:05:14.904Z,100850.28
2022-11-19T19:07:42.121Z,100844.25
2022-11-19T19:10:10.083Z,100847.44
2022-11-19T19:12:37.258Z,100846.72
2022-11-19T19:15:05.059Z,100848.03
2022-11-19T19:17:32.316Z,100847.69
2022-11-19T19:19:59.505Z,100851.66
2022-11-19T19:22:26.783Z,100854.09
2022-11-19T19:24:58.152Z,100862.56
2022-11-19T19:27:26.020Z,100869.03
2022-11-19T19:29:53.220Z,100877.63
2022-11-19T19:32:20.462Z,100871.91
2022-11-19T19:34:47.798Z,100876.13
2022-11-19T19:37:15.228Z,100876.59
2022-11-19T19:39:42.411Z,100874.47
2022-11-19T19:42:09.925Z,100880.13
2022-11-19T19:44:37.594Z,100880.28
2022-11-19T19:47:05.496Z,100876.66
2022-11-19T19:49:37.507Z,100876.09
2022-11-19T19:52:06.232Z,100877.56
2022-11-19T19:54:33.470Z,100876.69
2022-11-19T19:57:00.647Z,100883.06
2022-11-19T19:59:27.896Z,100886.13
2022-11-19T20:01:55.428Z,100876.69
2022-11-19T20:04:22.727Z,100886.84
2022-11-19T20:06:51.660Z,100888.03
2022-11-19T20:09:18.881Z,100890.63
2022-11-19T20:11:46.061Z,100900.56
2022-11-19T20:14:13.358Z,100897.59
2022-11-19T20:16:41.698Z,100893.84
2022-11-19T20:19:14.540Z,100892.38
2022-11-19T20:21:42.210Z,100893.53
2022-11-19T20:24:12.904Z,100884.59
2022-11-19T20:26:41.931Z,100891.06
2022-11-19T20:29:13.173Z,100888.94
2022-11-19T20:31:45.807Z,100901.38
2022-11-19T20:34:13.900Z,100892.13
2022-11-19T20:36:41.088Z,100895.63
2022-11-19T20:39:08.817Z,100895.03
2022-11-19T20:41:54.925Z,100899.66
2022-11-19T20:44:23.197Z,100895.63
2022-11-19T20:46:52.528Z,100895.75
2022-11-19T20:49:23.702Z,100895.88
2022-11-19T20:51:52.521Z,100891.41
2022-11-19T20:54:21.691Z,100890.34
2022-11-19T20:56:50.693Z,100877.44
2022-11-19T20:59:19.053Z,100883.19
2022-11-19T21:01:49.650Z,100876.38
2022-11-19T21:04:18.287Z,100881.78
2022-11-19T21:06:45.771Z,100873.19
2022-11-19T21:09:14.648Z,100867.19
2022-11-19T21:11:43.192Z,100872.94
2022-11-19T21:14:10.569Z,100867.09
2022-11-19T21:16:38.288Z,100863.72
2022-11-19T21:19:05.525Z,100862.00
2022-11-19T21:21:32.793Z,100862.25
2022-11-19T21:23:59.970Z,100867.09
2022-11-19T21:26:29.518Z,100866.94
2022-11-19T21:28:59.559Z,100862.03
2022-11-19T21:31:38.832Z,100858.66
2022-11-19T21:34:13.514Z,100861.91
2022-11-19T21:36:42.702Z,100847.28
2022-11-19T21:39:11.968Z,100852.16
2022-11-19T21:41:39.212Z,100851.38
2022-11-19T21:44:06.966Z,100835.56
2022-11-19T21:46:35.408Z,100842.44
2022-11-19T21:49:03.524Z,100836.75
2022-11-19T21:51:30.855Z,100834.16
2022-11-19T21:53:59.348Z,100837.09
2022-11-19T21:56:33.661Z,100827.72
2022-11-19T21:59:04.264Z,100831.94
2022-11-19T22:01:31.408Z,100821.66
2022-11-19T22:03:58.613Z,100819.66
2022-11-19T22:06:26.345Z,100815.34
2022-11-19T22:08:53.557Z,100815.22
2022-11-19T22:11:29.948Z,100812.41
2022-11-19T22:14:04.567Z,100816.41
2022-11-19T22:16:37.770Z,100816.66
2022-11-19T22:19:06.609Z,100817.56
2022-11-19T22:21:34.686Z,100814.91
2022-11-19T22:24:02.238Z,100813.34
2022-11-19T22:26:29.908Z,100817.38
2022-11-19T22:28:57.578Z,100809.28
2022-11-19T22:31:25.739Z,100810.88
2022-11-19T22:33:53.743Z,100813.75
2022-11-19T22:36:23.045Z,100808.31
2022-11-19T22:38:52.158Z,100815.34
2022-11-19T22:41:22.041Z,100804.91
2022-11-19T22:43:50.193Z,100811.75
2022-11-19T22:46:18.757Z,100823.31
2022-11-19T22:48:46.273Z,100822.34
2022-11-19T22:51:16.281Z,100826.06
2022-11-19T22:53:44.645Z,100826.13
2022-11-19T22:56:14.946Z,100827.00
2022-11-19T22:58:42.137Z,100819.75
2022-11-19T23:01:16.566Z,100821.19
2022-11-19T23:03:45.051Z,100826.50
2022-11-19T23:06:12.562Z,100828.09
2022-11-19T23:08:39.808Z,100824.81
2022-11-19T23:11:08.480Z,100830.13
2022-11-19T23:13:39.984Z,100828.09
2022-11-19T23:16:17.677Z,100834.34
2022-11-19T23:18:51.256Z,100819.16
2022-11-19T23:21:21.781Z,100829.22
2022-11-19T23:23:49.563Z,100821.38
2022-11-19T23:26:23.580Z,100817.53
2022-11-19T23:28:51.950Z,100824.50
2022-11-19T23:31:27.118Z,100822.03
2022-11-19T23:33:59.072Z,100814.78
2022-11-19T23:36:30.564Z,100816.75
2022-11-19T23:38:59.767Z,100814.06
2022-11-19T23:41:28.034Z,100818.06
2022-11-19T23:43:56.068Z,100808.81
2022-11-19T23:46:29.891Z,100803.69
2022-11-19T23:48:58.632Z,100804.47
2022-11-19T23:51:32.593Z,100803.97
2022-11-19T23:54:00.939Z,100803.75
2022-11-19T23:56:31.301Z,100795.84
2022-11-19T23:59:01.882Z,100803.22
